sensor_id;sensor_type;location;lat;lon;timestamp;pressure;altitude;pressure_sealevel;temperature;humidity
25638;BME280;13496;51.040;13.680;2023-02-28T00:00:53;101130.22;;;15.31;54.03
25638;BME280;13496;51.040;13.680;2023-02-28T00:05:55;101122.38;;;15.31;53.96
25638;BME280;13496;51.040;13.680;2023-02-28T00:11:01;101125.13;;;15.30;53.95
25638;BME280;13496;51.040;13.680;2023-02-28T00:16:08;101121.53;;;15.31;53.80
25638;BME280;13496;51.040;13.680;2023-02-28T00:21:10;101120.03;;;15.28;53.78
25638;BME280;13496;51.040;13.680;2023-02-28T00:26:12;101116.56;;;15.28;53.85
25638;BME280;13496;51.040;13.680;2023-02-28T00:31:16;101116.72;;;15.26;53.92
25638;BME280;13496;51.040;13.680;2023-02-28T00:36:18;101115.06;;;15.25;53.72
25638;BME280;13496;51.040;13.680;2023-02-28T00:41:19;101116.72;;;15.26;53.96
25638;BME280;13496;51.040;13.680;2023-02-28T00:46:22;101113.44;;;15.24;53.76
25638;BME280;13496;51.040;13.680;2023-02-28T00:51:25;101113.53;;;15.22;53.78
25638;BME280;13496;51.040;13.680;2023-02-28T00:56:27;101121.53;;;15.21;53.92
25638;BME280;13496;51.040;13.680;2023-02-28T01:01:29;101111.91;;;15.21;53.77
25638;BME280;13496;51.040;13.680;2023-02-28T01:06:31;101105.97;;;15.19;53.76
25638;BME280;13496;51.040;13.680;2023-02-28T01:11:34;101121.78;;;15.18;53.79
25638;BME280;13496;51.040;13.680;2023-02-28T01:16:35;101114.91;;;15.17;53.68
25638;BME280;13496;51.040;13.680;2023-02-28T01:21:38;101109.69;;;15.17;53.74
25638;BME280;13496;51.040;13.680;2023-02-28T01:26:40;101107.75;;;15.19;53.65
25638;BME280;13496;51.040;13.680;2023-02-28T01:31:43;101102.91;;;15.14;53.89
25638;BME280;13496;51.040;13.680;2023-02-28T01:36:44;101097.69;;;15.14;53.75
25638;BME280;13496;51.040;13.680;2023-02-28T01:41:47;101104.81;;;15.12;53.75
25638;BME280;13496;51.040;13.680;2023-02-28T01:46:48;101102.09;;;15.14;53.77
25638;BME280;13496;51.040;13.680;2023-02-28T01:51:52;101104.97;;;15.11;53.46
25638;BME280;13496;51.040;13.680;2023-02-28T01:57:14;101094.66;;;15.09;53.72
25638;BME280;13496;51.040;13.680;2023-02-28T02:02:20;101095.47;;;15.10;53.66
25638;BME280;13496;51.040;13.680;2023-02-28T02:07:24;101086.94;;;15.08;53.60
25638;BME280;13496;51.040;13.680;2023-02-28T02:12:35;101087.19;;;15.05;53.73
25638;BME280;13496;51.040;13.680;2023-02-28T02:17:47;101089.81;;;15.05;53.64
25638;BME280;13496;51.040;13.680;2023-02-28T02:45:01;101084.72;;;15.03;53.62
25638;BME280;13496;51.040;13.680;2023-02-28T02:50:08;101090.78;;;15.04;53.42
25638;BME280;13496;51.040;13.680;2023-02-28T02:55:14;101094.47;;;15.01;53.37
25638;BME280;13496;51.040;13.680;2023-02-28T03:00:20;101084.41;;;14.96;53.50
25638;BME280;13496;51.040;13.680;2023-02-28T03:05:27;101095.56;;;14.98;53.50
25638;BME280;13496;51.040;13.680;2023-02-28T03:10:38;101093.91;;;14.97;53.48
25638;BME280;13496;51.040;13.680;2023-02-28T03:21:24;101093.22;;;14.95;53.47
25638;BME280;13496;51.040;13.680;2023-02-28T03:26:33;101085.63;;;14.92;53.56
25638;BME280;13496;51.040;13.680;2023-02-28T03:31:41;101090.72;;;14.94;53.32
25638;BME280;13496;51.040;13.680;2023-02-28T03:36:48;101084.00;;;14.91;53.32
25638;BME280;13496;51.040;13.680;2023-02-28T03:42:00;101088.25;;;14.92;53.45
25638;BME280;13496;51.040;13.680;2023-02-28T03:47:11;101080.66;;;14.89;53.50
25638;BME280;13496;51.040;13.680;2023-02-28T03:52:14;101089.47;;;14.88;53.34
25638;BME280;13496;51.040;13.680;2023-02-28T03:57:27;101089.47;;;14.88;53.30
25638;BME280;13496;51.040;13.680;2023-02-28T04:02:32;101098.13;;;14.89;53.39
25638;BME280;13496;51.040;13.680;2023-02-28T04:07:35;101099.94;;;14.88;53.29
25638;BME280;13496;51.040;13.680;2023-02-28T04:12:37;101102.78;;;14.85;53.25
25638;BME280;13496;51.040;13.680;2023-02-28T04:17:38;101112.56;;;14.83;53.46
25638;BME280;13496;51.040;13.680;2023-02-28T04:22:40;101104.84;;;14.82;53.25
25638;BME280;13496;51.040;13.680;2023-02-28T04:27:41;101111.72;;;14.83;53.39
25638;BME280;13496;51.040;13.680;2023-02-28T04:32:45;101115.44;;;14.80;53.29
25638;BME280;13496;51.040;13.680;2023-02-28T04:37:47;101124.09;;;14.81;53.27
25638;BME280;13496;51.040;13.680;2023-02-28T04:42:49;101122.56;;;14.78;53.26
25638;BME280;13496;51.040;13.680;2023-02-28T04:47:50;101115.69;;;14.77;53.30
25638;BME280;13496;51.040;13.680;2023-02-28T04:52:52;101121.59;;;14.79;53.30
25638;BME280;13496;51.040;13.680;2023-02-28T04:57:54;101123.53;;;14.77;53.20
25638;BME280;13496;51.040;13.680;2023-02-28T05:02:55;101121.16;;;14.74;53.12
25638;BME280;13496;51.040;13.680;2023-02-28T05:07:57;101127.34;;;14.73;53.20
25638;BME280;13496;51.040;13.680;2023-02-28T05:12:59;101130.91;;;14.72;53.17
25638;BME280;13496;51.040;13.680;2023-02-28T05:18:00;101128.28;;;14.72;52.97
25638;BME280;13496;51.040;13.680;2023-02-28T05:23:02;101128.44;;;14.70;53.28
25638;BME280;13496;51.040;13.680;2023-02-28T05:28:05;101136.41;;;14.69;53.19
25638;BME280;13496;51.040;13.680;2023-02-28T05:33:10;101140.09;;;14.66;53.22
25638;BME280;13496;51.040;13.680;2023-02-28T05:38:12;101137.47;;;14.66;53.22
25638;BME280;13496;51.040;13.680;2023-02-28T05:43:14;101138.44;;;14.65;52.99
25638;BME280;13496;51.040;13.680;2023-02-28T05:48:15;101142.13;;;14.63;53.10
25638;BME280;13496;51.040;13.680;2023-02-28T05:53:18;101143.09;;;14.62;53.19
25638;BME280;13496;51.040;13.680;2023-02-28T05:58:19;101148.44;;;14.60;53.19
25638;BME280;13496;51.040;13.680;2023-02-28T06:03:21;101141.31;;;14.62;53.18
25638;BME280;13496;51.040;13.680;2023-02-28T06:08:23;101149.25;;;14.61;53.42
25638;BME280;13496;51.040;13.680;2023-02-28T06:13:24;101160.56;;;14.61;53.34
25638;BME280;13496;51.040;13.680;2023-02-28T06:18:26;101158.06;;;14.60;53.33
25638;BME280;13496;51.040;13.680;2023-02-28T06:23:28;101164.91;;;14.61;53.40
25638;BME280;13496;51.040;13.680;2023-02-28T06:28:30;101176.22;;;14.61;53.55
25638;BME280;13496;51.040;13.680;2023-02-28T06:33:31;101178.56;;;14.64;53.73
25638;BME280;13496;51.040;13.680;2023-02-28T06:38:33;101184.63;;;14.65;53.78
25638;BME280;13496;51.040;13.680;2023-02-28T06:43:38;101201.97;;;14.66;53.77
25638;BME280;13496;51.040;13.680;2023-02-28T06:48:42;101204.56;;;14.66;53.76
25638;BME280;13496;51.040;13.680;2023-02-28T06:53:44;101215.97;;;14.65;53.84
25638;BME280;13496;51.040;13.680;2023-02-28T06:58:47;101210.03;;;14.63;53.80
25638;BME280;13496;51.040;13.680;2023-02-28T07:03:50;101223.69;;;14.66;53.83
25638;BME280;13496;51.040;13.680;2023-02-28T07:08:54;101223.53;;;14.68;53.88
25638;BME280;13496;51.040;13.680;2023-02-28T07:13:56;101224.13;;;14.71;53.75
25638;BME280;13496;51.040;13.680;2023-02-28T07:18:58;101232.09;;;14.70;53.78
25638;BME280;13496;51.040;13.680;2023-02-28T07:24:00;101232.91;;;14.70;53.69
25638;BME280;13496;51.040;13.680;2023-02-28T07:29:02;101233.50;;;14.74;53.30
25638;BME280;13496;51.040;13.680;2023-02-28T07:34:03;101221.16;;;14.76;53.55
25638;BME280;13496;51.040;13.680;2023-02-28T07:39:05;101237.41;;;14.80;53.61
25638;BME280;13496;51.040;13.680;2023-02-28T07:44:07;101224.19;;;14.81;53.86
25638;BME280;13496;51.040;13.680;2023-02-28T07:49:09;101224.38;;;14.89;53.51
25638;BME280;13496;51.040;13.680;2023-02-28T07:54:10;101231.00;;;14.93;53.56
25638;BME280;13496;51.040;13.680;2023-02-28T07:59:12;101231.47;;;14.98;53.58
25638;BME280;13496;51.040;13.680;2023-02-28T08:04:14;101229.03;;;15.07;53.47
25638;BME280;13496;51.040;13.680;2023-02-28T08:09:15;101226.88;;;15.12;53.39
25638;BME280;13496;51.040;13.680;2023-02-28T08:14:17;101230.88;;;15.16;53.32
25638;BME280;13496;51.040;13.680;2023-02-28T08:19:19;101229.41;;;15.23;53.27
25638;BME280;13496;51.040;13.680;2023-02-28T08:24:21;101228.06;;;15.29;53.37
25638;BME280;13496;51.040;13.680;2023-02-28T08:29:22;101230.69;;;15.29;53.36
25638;BME280;13496;51.040;13.680;2023-02-28T08:34:24;101230.53;;;15.30;53.50
25638;BME280;13496;51.040;13.680;2023-02-28T08:39:26;101235.66;;;15.32;53.33
25638;BME280;13496;51.040;13.680;2023-02-28T08:44:28;101229.22;;;15.36;53.40
25638;BME280;13496;51.040;13.680;2023-02-28T08:49:29;101244.50;;;15.40;53.04
25638;BME280;13496;51.040;13.680;2023-02-28T08:54:31;101241.06;;;15.40;53.26
25638;BME280;13496;51.040;13.680;2023-02-28T08:59:34;101239.69;;;15.45;53.17
25638;BME280;13496;51.040;13.680;2023-02-28T09:04:36;101230.63;;;15.49;53.01
25638;BME280;13496;51.040;13.680;2023-02-28T09:09:38;101239.19;;;15.52;53.20
25638;BME280;13496;51.040;13.680;2023-02-28T09:14:55;101234.38;;;15.57;52.98
25638;BME280;13496;51.040;13.680;2023-02-28T09:19:57;101236.72;;;15.60;52.96
25638;BME280;13496;51.040;13.680;2023-02-28T09:24:59;101227.22;;;15.59;52.69
25638;BME280;13496;51.040;13.680;2023-02-28T09:30:01;101227.91;;;15.61;52.98
25638;BME280;13496;51.040;13.680;2023-02-28T09:35:02;101228.88;;;15.60;53.03
25638;BME280;13496;51.040;13.680;2023-02-28T09:40:05;101223.53;;;15.61;52.97
25638;BME280;13496;51.040;13.680;2023-02-28T09:45:20;101217.94;;;15.66;53.31
25638;BME280;13496;51.040;13.680;2023-02-28T09:50:35;101224.97;;;15.75;53.23
25638;BME280;13496;51.040;13.680;2023-02-28T09:55:42;101227.88;;;15.82;53.01
25638;BME280;13496;51.040;13.680;2023-02-28T10:00:54;101229.72;;;15.91;52.84
25638;BME280;13496;51.040;13.680;2023-02-28T10:06:05;101224.34;;;15.92;53.00
25638;BME280;13496;51.040;13.680;2023-02-28T10:11:12;101234.09;;;15.90;53.03
25638;BME280;13496;51.040;13.680;2023-02-28T10:16:22;101223.81;;;15.99;52.93
25638;BME280;13496;51.040;13.680;2023-02-28T10:21:34;101228.34;;;15.96;53.06
25638;BME280;13496;51.040;13.680;2023-02-28T10:26:36;101225.47;;;16.00;52.91
25638;BME280;13496;51.040;13.680;2023-02-28T10:31:38;101228.06;;;16.00;53.06
25638;BME280;13496;51.040;13.680;2023-02-28T10:36:41;101216.63;;;16.01;52.98
25638;BME280;13496;51.040;13.680;2023-02-28T10:41:50;101229.97;;;15.97;53.01
25638;BME280;13496;51.040;13.680;2023-02-28T10:46:52;101225.56;;;15.98;53.05
25638;BME280;13496;51.040;13.680;2023-02-28T10:51:59;101225.75;;;16.06;52.78
25638;BME280;13496;51.040;13.680;2023-02-28T10:57:18;101217.19;;;16.04;53.02
25638;BME280;13496;51.040;13.680;2023-02-28T11:02:35;101211.13;;;16.04;53.08
25638;BME280;13496;51.040;13.680;2023-02-28T11:07:38;101210.16;;;16.05;52.86
25638;BME280;13496;51.040;13.680;2023-02-28T11:12:41;101204.94;;;16.05;52.90
25638;BME280;13496;51.040;13.680;2023-02-28T11:17:53;101194.34;;;16.06;53.00
25638;BME280;13496;51.040;13.680;2023-02-28T11:22:56;101188.25;;;16.15;52.89
25638;BME280;13496;51.040;13.680;2023-02-28T11:28:01;101191.03;;;16.24;52.82
25638;BME280;13496;51.040;13.680;2023-02-28T11:33:28;101186.22;;;16.29;52.61
25638;BME280;13496;51.040;13.680;2023-02-28T11:38:34;101174.22;;;16.36;52.42
25638;BME280;13496;51.040;13.680;2023-02-28T11:44:02;101167.19;;;16.27;52.76
25638;BME280;13496;51.040;13.680;2023-02-28T11:49:35;101164.84;;;16.24;52.82
25638;BME280;13496;51.040;13.680;2023-02-28T11:55:04;101175.47;;;16.22;52.87
25638;BME280;13496;51.040;13.680;2023-02-28T12:00:29;101168.81;;;16.28;52.87
25638;BME280;13496;51.040;13.680;2023-02-28T12:05:48;101162.22;;;16.24;53.02
25638;BME280;13496;51.040;13.680;2023-02-28T12:11:11;101159.75;;;16.32;52.91
25638;BME280;13496;51.040;13.680;2023-02-28T12:21:53;101159.47;;;16.35;52.89
25638;BME280;13496;51.040;13.680;2023-02-28T12:27:00;101164.69;;;16.35;53.01
25638;BME280;13496;51.040;13.680;2023-02-28T12:32:16;101156.16;;;16.42;52.71
25638;BME280;13496;51.040;13.680;2023-02-28T12:37:25;101161.53;;;16.41;52.91
25638;BME280;13496;51.040;13.680;2023-02-28T12:42:32;101145.94;;;16.49;52.67
25638;BME280;13496;51.040;13.680;2023-02-28T12:47:36;101147.34;;;16.43;52.89
25638;BME280;13496;51.040;13.680;2023-02-28T12:53:19;101145.38;;;16.45;52.88
25638;BME280;13496;51.040;13.680;2023-02-28T12:58:37;101145.13;;;16.49;52.58
25638;BME280;13496;51.040;13.680;2023-02-28T13:09:16;101134.91;;;16.65;52.54
25638;BME280;13496;51.040;13.680;2023-02-28T13:24:54;101140.00;;;16.57;52.69
25638;BME280;13496;51.040;13.680;2023-02-28T13:29:55;101137.97;;;16.51;52.83
25638;BME280;13496;51.040;13.680;2023-02-28T13:55:32;101126.66;;;16.40;53.03
25638;BME280;13496;51.040;13.680;2023-02-28T14:01:00;101117.81;;;16.41;53.05
25638;BME280;13496;51.040;13.680;2023-02-28T14:06:22;101123.06;;;16.41;52.98
25638;BME280;13496;51.040;13.680;2023-02-28T14:11:29;101121.97;;;16.44;52.75
25638;BME280;13496;51.040;13.680;2023-02-28T14:16:47;101114.94;;;16.44;53.02
25638;BME280;13496;51.040;13.680;2023-02-28T14:27:26;101095.63;;;16.45;52.88
25638;BME280;13496;51.040;13.680;2023-02-28T14:32:51;101093.53;;;16.49;52.87
25638;BME280;13496;51.040;13.680;2023-02-28T14:37:56;101084.59;;;16.52;52.82
25638;BME280;13496;51.040;13.680;2023-02-28T14:43:05;101083.88;;;16.50;52.68
25638;BME280;13496;51.040;13.680;2023-02-28T14:48:11;101087.75;;;16.45;52.60
25638;BME280;13496;51.040;13.680;2023-02-28T14:53:17;101086.66;;;16.48;52.75
25638;BME280;13496;51.040;13.680;2023-02-28T14:58:27;101083.06;;;16.49;52.54
25638;BME280;13496;51.040;13.680;2023-02-28T15:03:35;101091.06;;;16.48;52.81
25638;BME280;13496;51.040;13.680;2023-02-28T15:08:37;101090.53;;;16.44;52.81
25638;BME280;13496;51.040;13.680;2023-02-28T15:13:45;101093.16;;;16.44;52.77
25638;BME280;13496;51.040;13.680;2023-02-28T15:18:49;101097.69;;;16.42;52.75
25638;BME280;13496;51.040;13.680;2023-02-28T15:24:08;101092.44;;;16.42;52.83
25638;BME280;13496;51.040;13.680;2023-02-28T15:29:19;101091.78;;;16.40;52.83
25638;BME280;13496;51.040;13.680;2023-02-28T15:34:33;101090.81;;;16.41;52.82
25638;BME280;13496;51.040;13.680;2023-02-28T15:39:42;101096.31;;;16.38;52.95
25638;BME280;13496;51.040;13.680;2023-02-28T15:44:45;101098.81;;;16.39;52.76
25638;BME280;13496;51.040;13.680;2023-02-28T15:49:50;101098.00;;;16.39;52.77
25638;BME280;13496;51.040;13.680;2023-02-28T15:54:52;101099.09;;;16.36;52.68
25638;BME280;13496;51.040;13.680;2023-02-28T16:00:02;101107.06;;;16.35;52.93
25638;BME280;13496;51.040;13.680;2023-02-28T16:05:18;101100.06;;;16.35;53.00
25638;BME280;13496;51.040;13.680;2023-02-28T16:10:24;101101.00;;;16.34;52.75
25638;BME280;13496;51.040;13.680;2023-02-28T16:15:29;101095.09;;;16.32;53.04
25638;BME280;13496;51.040;13.680;2023-02-28T16:20:32;101101.16;;;16.33;53.05
25638;BME280;13496;51.040;13.680;2023-02-28T16:25:40;101100.19;;;16.34;52.75
25638;BME280;13496;51.040;13.680;2023-02-28T16:30:42;101096.59;;;16.35;52.72
25638;BME280;13496;51.040;13.680;2023-02-28T16:35:43;101096.75;;;16.33;52.78
25638;BME280;13496;51.040;13.680;2023-02-28T16:40:45;101106.41;;;16.33;52.97
25638;BME280;13496;51.040;13.680;2023-02-28T16:45:47;101106.53;;;16.31;52.95
25638;BME280;13496;51.040;13.680;2023-02-28T16:50:49;101098.81;;;16.30;52.80
25638;BME280;13496;51.040;13.680;2023-02-28T16:55:50;101100.63;;;16.29;52.79
25638;BME280;13496;51.040;13.680;2023-02-28T17:00:52;101098.00;;;16.29;52.99
25638;BME280;13496;51.040;13.680;2023-02-28T17:05:54;101107.78;;;16.27;52.91
25638;BME280;13496;51.040;13.680;2023-02-28T17:10:55;101112.19;;;16.27;53.02
25638;BME280;13496;51.040;13.680;2023-02-28T17:15:57;101109.56;;;16.27;52.77
25638;BME280;13496;51.040;13.680;2023-02-28T17:21:02;101108.91;;;16.25;52.90
25638;BME280;13496;51.040;13.680;2023-02-28T17:26:03;101114.25;;;16.23;53.03
25638;BME280;13496;51.040;13.680;2023-02-28T17:31:08;101117.16;;;16.20;52.90
25638;BME280;13496;51.040;13.680;2023-02-28T17:36:14;101118.13;;;16.19;53.19
25638;BME280;13496;51.040;13.680;2023-02-28T17:41:16;101113.72;;;16.19;52.98
25638;BME280;13496;51.040;13.680;2023-02-28T17:46:23;101113.97;;;16.16;53.19
25638;BME280;13496;51.040;13.680;2023-02-28T17:51:25;101111.34;;;16.16;52.98
25638;BME280;13496;51.040;13.680;2023-02-28T17:56:27;101110.69;;;16.14;53.07
25638;BME280;13496;51.040;13.680;2023-02-28T18:01:28;101101.31;;;16.12;53.04
25638;BME280;13496;51.040;13.680;2023-02-28T18:06:37;101091.81;;;16.11;53.05
25638;BME280;13496;51.040;13.680;2023-02-28T18:11:48;101094.44;;;16.11;53.03
25638;BME280;13496;51.040;13.680;2023-02-28T18:16:52;101098.03;;;16.10;53.18
25638;BME280;13496;51.040;13.680;2023-02-28T18:21:54;101098.28;;;16.07;53.12
25638;BME280;13496;51.040;13.680;2023-02-28T18:26:56;101103.53;;;16.07;52.92
25638;BME280;13496;51.040;13.680;2023-02-28T18:31:58;101096.50;;;16.07;53.20
25638;BME280;13496;51.040;13.680;2023-02-28T18:37:03;101093.31;;;16.04;52.98
25638;BME280;13496;51.040;13.680;2023-02-28T18:42:04;101097.88;;;16.02;53.37
25638;BME280;13496;51.040;13.680;2023-02-28T18:47:06;101098.84;;;16.01;53.33
25638;BME280;13496;51.040;13.680;2023-02-28T18:52:08;101098.84;;;16.01;53.29
25638;BME280;13496;51.040;13.680;2023-02-28T18:57:10;101103.94;;;16.02;53.63
25638;BME280;13496;51.040;13.680;2023-02-28T19:02:12;101103.94;;;16.02;53.96
25638;BME280;13496;51.040;13.680;2023-02-28T19:07:13;101102.44;;;16.00;53.82
25638;BME280;13496;51.040;13.680;2023-02-28T19:12:15;101100.63;;;16.00;53.94
25638;BME280;13496;51.040;13.680;2023-02-28T19:17:17;101109.56;;;15.97;54.16
25638;BME280;13496;51.040;13.680;2023-02-28T19:22:19;101103.41;;;15.99;54.12
25638;BME280;13496;51.040;13.680;2023-02-28T19:27:21;101108.91;;;15.95;54.27
25638;BME280;13496;51.040;13.680;2023-02-28T19:32:22;101111.78;;;15.92;54.20
25638;BME280;13496;51.040;13.680;2023-02-28T19:37:24;101108.34;;;15.92;54.31
25638;BME280;13496;51.040;13.680;2023-02-28T19:42:26;101098.69;;;15.92;54.28
25638;BME280;13496;51.040;13.680;2023-02-28T19:47:33;101106.81;;;15.89;54.14
25638;BME280;13496;51.040;13.680;2023-02-28T19:52:35;101113.84;;;15.89;54.24
25638;BME280;13496;51.040;13.680;2023-02-28T19:57:36;101113.03;;;15.88;54.26
25638;BME280;13496;51.040;13.680;2023-02-28T20:02:39;101119.09;;;15.89;54.27
25638;BME280;13496;51.040;13.680;2023-02-28T20:07:41;101116.72;;;15.86;54.37
25638;BME280;13496;51.040;13.680;2023-02-28T20:12:42;101126.13;;;15.88;54.52
25638;BME280;13496;51.040;13.680;2023-02-28T20:17:44;101124.47;;;15.87;54.23
25638;BME280;13496;51.040;13.680;2023-02-28T20:22:48;101128.28;;;15.83;54.35
25638;BME280;13496;51.040;13.680;2023-02-28T20:27:50;101121.84;;;15.87;54.04
25638;BME280;13496;51.040;13.680;2023-02-28T20:32:51;101122.13;;;15.84;54.39
25638;BME280;13496;51.040;13.680;2023-02-28T20:37:53;101124.59;;;15.86;54.03
25638;BME280;13496;51.040;13.680;2023-02-28T20:42:55;101123.22;;;15.82;54.31
25638;BME280;13496;51.040;13.680;2023-02-28T20:47:56;101121.41;;;15.82;54.41
25638;BME280;13496;51.040;13.680;2023-02-28T20:52:58;101125.00;;;15.81;54.38
25638;BME280;13496;51.040;13.680;2023-02-28T20:58:00;101114.53;;;15.81;54.27
25638;BME280;13496;51.040;13.680;2023-02-28T21:03:01;101132.03;;;15.81;54.41
25638;BME280;13496;51.040;13.680;2023-02-28T21:08:03;101127.06;;;15.78;54.34
25638;BME280;13496;51.040;13.680;2023-02-28T21:13:05;101126.25;;;15.77;54.35
25638;BME280;13496;51.040;13.680;2023-02-28T21:18:06;101131.47;;;15.77;54.26
25638;BME280;13496;51.040;13.680;2023-02-28T21:23:08;101133.28;;;15.77;54.51
25638;BME280;13496;51.040;13.680;2023-02-28T21:28:10;101125.53;;;15.75;54.40
25638;BME280;13496;51.040;13.680;2023-02-28T21:33:11;101125.41;;;15.77;54.50
25638;BME280;13496;51.040;13.680;2023-02-28T21:38:13;101124.88;;;15.73;54.38
25638;BME280;13496;51.040;13.680;2023-02-28T21:43:14;101121.41;;;15.72;54.51
25638;BME280;13496;51.040;13.680;2023-02-28T21:48:16;101130.22;;;15.71;54.16
25638;BME280;13496;51.040;13.680;2023-02-28T21:53:18;101132.16;;;15.69;54.36
25638;BME280;13496;51.040;13.680;2023-02-28T21:58:20;101130.34;;;15.70;54.45
25638;BME280;13496;51.040;13.680;2023-02-28T22:03:21;101133.94;;;15.69;54.24
25638;BME280;13496;51.040;13.680;2023-02-28T22:08:23;101122.78;;;15.67;54.57
25638;BME280;13496;51.040;13.680;2023-02-28T22:13:25;101118.38;;;15.67;54.40
25638;BME280;13496;51.040;13.680;2023-02-28T22:18:26;101114.34;;;15.63;54.53
25638;BME280;13496;51.040;13.680;2023-02-28T22:23:28;101124.13;;;15.61;54.65
25638;BME280;13496;51.040;13.680;2023-02-28T22:28:30;101122.34;;;15.62;54.47
25638;BME280;13496;51.040;13.680;2023-02-28T22:33:31;101112.13;;;15.59;54.70
25638;BME280;13496;51.040;13.680;2023-02-28T22:38:33;101114.75;;;15.59;54.60
25638;BME280;13496;51.040;13.680;2023-02-28T22:43:37;101112.13;;;15.59;54.48
25638;BME280;13496;51.040;13.680;2023-02-28T22:48:39;101119.28;;;15.57;54.52
25638;BME280;13496;51.040;13.680;2023-02-28T22:53:42;101134.28;;;15.55;54.52
25638;BME280;13496;51.040;13.680;2023-02-28T22:59:02;101123.69;;;15.56;54.48
25638;BME280;13496;51.040;13.680;2023-02-28T23:04:05;101129.19;;;15.53;54.44
25638;BME280;13496;51.040;13.680;2023-02-28T23:09:14;101128.34;;;15.53;54.50
25638;BME280;13496;51.040;13.680;2023-02-28T23:14:19;101131.22;;;15.49;54.63
25638;BME280;13496;51.040;13.680;2023-02-28T23:19:25;101133.03;;;15.49;54.62
25638;BME280;13496;51.040;13.680;2023-02-28T23:24:29;101128.50;;;15.51;54.45
25638;BME280;13496;51.040;13.680;2023-02-28T23:29:32;101144.47;;;15.48;54.57
25638;BME280;13496;51.040;13.680;2023-02-28T23:34:34;101142.09;;;15.45;54.87
25638;BME280;13496;51.040;13.680;2023-02-28T23:39:35;101148.88;;;15.47;54.52
25638;BME280;13496;51.040;13.680;2023-02-28T23:44:37;101145.53;;;15.45;54.55
25638;BME280;13496;51.040;13.680;2023-02-28T23:49:39;101157.13;;;15.43;54.73
25638;BME280;13496;51.040;13.680;2023-02-28T23:54:40;101157.13;;;15.43;54.58
25638;BME280;13496;51.040;13.680;2023-02-28T23:59:42;101141.53;;;15.41;54.62
